Time;durP1;ratioP1;P1;durP2;ratioP2;P2;SDS_P1;SDS_P2;PMS_P1;PMS_P2;Temp;Humidity;BMP_temperature;BMP_pressure;BME280_temperature;BME280_humidity;BME280_pressure;Samples;Min_cycle;Max_cycle;Signal;HPM_P1;HPM_P2
2023/12/25 00:02:11;;;;;;;;;30.75;27.25;;;;;9.16;64.57;101091.00;146605;570;46021;-64
2023/12/25 00:05:13;;;;;;;;;37.00;32.25;;;;;9.15;65.82;101090.91;146598;639;46016;-64
2023/12/25 00:08:22;;;;;;;;;30.75;28.25;;;;;9.14;65.67;101096.88;146605;565;46020;-64
2023/12/25 00:11:31;;;;;;;;;31.00;26.50;;;;;9.13;66.03;101090.81;146597;635;48012;-64
2023/12/25 00:14:33;;;;;;;;;31.25;30.00;;;;;9.20;65.94;101094.69;146605;649;46020;-63
2023/12/25 00:17:50;;;;;;;;;34.00;30.00;;;;;9.25;64.91;101096.75;146599;737;47016;-63
2023/12/25 00:20:43;;;;;;;;;25.00;22.50;;;;;9.30;65.85;101091.84;146605;626;46010;-65
2023/12/25 00:23:56;;;;;;;;;37.25;32.25;;;;;9.33;65.52;101092.03;146602;602;46016;-66
2023/12/25 00:27:12;;;;;;;;;29.25;24.25;;;;;6.26;64.13;100557.88;146599;574;46021;-67
2023/12/25 00:30:21;;;;;;;;;26.25;22.00;;;;;9.28;64.92;101095.13;146599;607;46012;-69
2023/12/25 00:33:13;;;;;;;;;19.00;17.25;;;;;9.23;65.48;101095.75;146598;587;47010;-69
2023/12/25 00:36:10;;;;;;;;;21.25;19.25;;;;;9.19;65.42;101098.97;146597;659;46014;-68
2023/12/25 00:39:16;;;;;;;;;20.25;17.00;;;;;9.16;64.79;101108.22;146604;640;46010;-68
2023/12/25 00:42:16;;;;;;;;;19.00;16.00;;;;;9.13;65.54;101115.78;146597;583;47016;-68
2023/12/25 00:45:13;;;;;;;;;20.50;16.00;;;;;9.10;65.49;101110.44;146603;582;46020;-70
2023/12/25 00:48:18;;;;;;;;;20.75;18.00;;;;;9.07;66.31;101116.28;146597;626;46016;-71
2023/12/25 00:51:13;;;;;;;;;23.75;21.25;;;;;9.04;66.34;101107.44;146605;569;46020;-70
2023/12/25 00:54:17;;;;;;;;;17.00;16.00;;;;;8.98;65.60;101114.00;146597;604;46013;-70
2023/12/25 00:57:13;;;;;;;;;17.00;15.50;;;;;8.96;66.39;101107.84;146597;600;46020;-70
2023/12/25 01:00:12;;;;;;;;;13.25;13.25;;;;;8.94;65.98;101109.44;146598;587;47012;-69
2023/12/25 01:03:14;;;;;;;;;15.00;13.25;;;;;8.94;66.37;101112.03;146602;584;46021;-68
2023/12/25 01:06:19;;;;;;;;;;;;;;;;;;;;;
2023/12/25 01:09:15;;;;;;;;;14.00;12.50;;;;;8.98;66.84;101115.72;146603;592;46021;-66
2023/12/25 01:12:15;;;;;;;;;15.00;12.25;;;;;8.95;65.98;101118.09;146596;607;47914;-68
2023/12/25 01:15:15;;;;;;;;;12.25;12.25;;;;;8.94;65.49;101113.69;146601;564;46020;-67
2023/12/25 01:18:17;;;;;;;;;15.50;11.50;;;;;8.94;66.38;101116.28;146598;607;46012;-67
2023/12/25 01:21:34;;;;;;;;;12.75;10.00;;;;;8.93;65.66;101110.22;146603;751;46020;-67
2023/12/25 01:24:44;;;;;;;;;10.00;10.00;;;;;8.92;66.69;101104.97;146601;653;46016;-67
2023/12/25 01:27:50;;;;;;;;;11.00;8.25;;;;;5.01;65.48;100430.31;146597;668;47020;-68
2023/12/25 01:31:07;;;;;;;;;10.75;9.25;;;;;8.91;65.57;101100.56;146596;604;48013;-67
2023/12/25 01:34:13;;;;;;;;;10.00;9.00;;;;;8.92;65.80;101095.50;146601;611;46914;-67
2023/12/25 01:37:22;;;;;;;;;11.00;9.50;;;;;8.93;66.26;101099.00;146600;563;46016;-67
2023/12/25 01:40:24;;;;;;;;;10.50;8.75;;;;;8.90;65.94;101088.44;146603;649;46020;-68
2023/12/25 01:43:33;;;;;;;;;9.00;7.25;;;;;8.86;66.26;101083.91;146596;577;47014;-66
2023/12/25 01:46:30;;;;;;;;;7.75;6.75;;;;;8.83;67.09;101091.44;146601;606;46021;-66
2023/12/25 01:49:22;;;;;;;;;10.25;9.00;;;;;8.81;67.09;101077.53;146598;608;46035;-68
2023/12/25 01:52:29;;;;;;;;;13.75;9.50;;;;;8.86;66.39;101091.66;146598;564;47020;-67
2023/12/25 01:55:38;;;;;;;;;14.50;12.25;;;;;8.80;65.54;101076.63;146600;571;46915;-67
2023/12/25 01:58:39;;;;;;;;;18.00;14.50;;;;;8.84;66.25;101086.38;146598;597;47010;-69
2023/12/25 02:01:32;;;;;;;;;10.50;8.25;;;;;8.79;67.31;101073.16;146598;564;46034;-68
2023/12/25 02:04:45;;;;;;;;;9.75;9.75;;;;;8.74;66.22;101077.13;146599;596;46020;-68
2023/12/25 02:07:51;;;;;;;;;7.50;7.50;;;;;8.69;66.34;101081.13;146597;584;47012;-68
2023/12/25 02:10:50;;;;;;;;;7.50;6.00;;;;;8.67;66.80;101076.66;146601;602;47021;-69
2023/12/25 02:14:13;;;;;;;;;10.75;8.00;;;;;4.36;65.74;100324.84;146598;609;46012;-68
2023/12/25 02:17:40;;;;;;;;;10.75;8.50;;;;;5.95;65.96;100591.91;146603;614;46010;-65
2023/12/25 02:20:46;;;;;;;;;9.00;8.25;;;;;8.69;66.96;101067.28;146598;677;46014;-65
2023/12/25 02:23:51;;;;;;;;;8.25;7.25;;;;;8.68;66.28;101071.56;146603;673;46021;-63
2023/12/25 02:26:51;;;;;;;;;7.50;5.50;;;;;8.70;66.82;101071.69;146597;625;46016;-64
2023/12/25 02:30:06;;;;;;;;;9.00;9.00;;;;;2.83;64.99;100037.25;146599;613;46010;-64
2023/12/25 02:33:04;;;;;;;;;7.25;7.00;;;;;8.67;66.46;101064.63;146597;611;46014;-64
2023/12/25 02:36:01;;;;;;;;;7.75;6.75;;;;;8.62;66.89;101066.00;146602;582;46020;-64
2023/12/25 02:39:18;;;;;;;;;7.00;5.00;;;;;6.37;65.30;100672.78;146600;595;46016;-67
2023/12/25 02:42:16;;;;;;;;;4.75;4.25;;;;;8.58;66.92;101063.13;146600;595;47010;-67
2023/12/25 02:45:33;;;;;;;;;8.00;8.00;;;;;4.17;65.12;100285.84;146597;574;47013;-67
2023/12/25 02:48:31;;;;;;;;;5.00;4.50;;;;;8.55;66.30;101071.56;146603;627;46010;-67
2023/12/25 02:51:24;;;;;;;;;4.00;4.00;;;;;8.52;66.91;101074.84;146600;602;46012;-67
2023/12/25 02:54:26;;;;;;;;;4.00;4.00;;;;;8.49;66.17;101076.34;146601;634;46021;-66
2023/12/25 02:57:39;;;;;;;;;5.50;3.75;;;;;4.50;66.10;100373.69;146597;622;46016;-66
2023/12/25 03:00:46;;;;;;;;;3.50;3.50;;;;;4.37;65.96;100359.09;146605;612;46021;-66
2023/12/25 03:03:39;;;;;;;;;4.75;3.75;;;;;8.42;67.37;101072.47;146600;566;46016;-66
2023/12/25 03:06:47;;;;;;;;;6.50;5.75;;;;;8.41;66.40;101074.94;146602;599;47010;-65
2023/12/25 03:09:46;;;;;;;;;6.50;5.00;;;;;8.43;67.56;101070.78;146599;564;46012;-65
2023/12/25 03:13:11;;;;;;;;;7.50;5.00;;;;;8.44;66.01;101069.97;146603;599;46020;-66
2023/12/25 03:16:09;;;;;;;;;4.25;4.25;;;;;8.43;66.94;101073.38;146597;625;46013;-66
2023/12/25 03:19:04;;;;;;;;;6.00;5.00;;;;;8.40;67.09;101073.16;146603;642;47036;-68
2023/12/25 03:22:00;;;;;;;;;6.75;5.75;;;;;8.36;66.54;101071.16;146598;570;47013;-67
2023/12/25 03:24:57;;;;;;;;;6.00;5.00;;;;;8.30;67.36;101072.53;146602;593;46021;-68
2023/12/25 03:27:53;;;;;;;;;8.75;6.25;;;;;8.29;67.48;101081.06;146598;686;46014;-67
2023/12/25 03:31:10;;;;;;;;;11.50;10.75;;;;;3.66;66.21;100273.72;146601;580;46021;-66
2023/12/25 03:34:06;;;;;;;;;7.25;6.00;;;;;8.25;67.51;101076.47;146594;674;47914;-68
2023/12/25 03:37:05;;;;;;;;;7.00;5.00;;;;;8.29;66.39;101075.91;146603;585;46010;-64
2023/12/25 03:40:34;;;;;;;;;6.75;6.75;;;;;4.85;65.45;100468.59;146599;616;46012;-66
2023/12/25 03:43:40;;;;;;;;;8.50;7.00;;;;;8.41;66.41;101090.44;146603;729;46020;-64
2023/12/25 03:46:44;;;;;;;;;3.00;3.00;;;;;8.43;66.44;101088.88;146597;590;47013;-65
2023/12/25 03:49:57;;;;;;;;;6.00;4.00;;;;;8.40;65.97;101086.97;146599;626;47020;-64
2023/12/25 03:52:57;;;;;;;;;3.50;3.50;;;;;8.42;66.09;101092.25;146599;640;47013;-64
2023/12/25 03:55:51;;;;;;;;;4.00;2.50;;;;;6.45;66.00;100730.88;146602;647;47010;-67
2023/12/25 03:58:59;;;;;;;;;2.75;2.75;;;;;8.44;65.67;101088.06;146598;585;47012;-65
2023/12/25 04:01:52;;;;;;;;;4.00;3.50;;;;;8.43;65.80;101094.03;146599;595;47010;-65
2023/12/25 04:04:52;;;;;;;;;4.25;3.00;;;;;8.40;65.83;101099.91;146599;593;46915;-66
2023/12/25 04:07:54;;;;;;;;;3.75;3.00;;;;;8.38;65.88;101101.50;146600;608;47010;-65
2023/12/25 04:10:55;;;;;;;;;2.25;2.25;;;;;8.31;65.81;101092.38;146597;691;46016;-66
2023/12/25 04:13:53;;;;;;;;;4.00;3.00;;;;;8.33;65.89;101101.16;146599;581;47011;-66
2023/12/25 04:17:02;;;;;;;;;4.50;3.50;;;;;8.32;65.56;101107.13;146597;622;46915;-65
2023/12/25 04:20:09;;;;;;;;;3.50;2.00;;;;;8.29;66.44;101108.59;146601;613;47020;-67
2023/12/25 04:23:02;;;;;;;;;4.00;2.00;;;;;8.24;66.58;101107.41;146601;595;46017;-64
2023/12/25 04:26:13;;;;;;;;;2.00;2.00;;;;;8.19;67.00;101104.50;146604;644;46042;-64
2023/12/25 04:29:09;;;;;;;;;4.75;4.75;;;;;8.14;66.80;101108.47;146601;625;46913;-66
2023/12/25 04:32:06;;;;;;;;;9.25;5.50;;;;;8.11;67.39;101118.59;146601;613;46010;-66
2023/12/25 04:35:03;;;;;;;;;4.75;3.50;;;;;8.12;67.20;101125.53;146598;609;46014;-66
2023/12/25 04:38:19;;;;;;;;;4.25;3.00;;;;;8.09;67.19;101123.66;146603;588;46010;-67
2023/12/25 04:41:16;;;;;;;;;6.00;3.75;;;;;8.16;68.15;101132.72;146596;608;47016;-65
2023/12/25 04:44:10;;;;;;;;;9.25;7.00;;;;;8.21;67.95;101133.03;146605;612;46011;-65
2023/12/25 04:47:08;;;;;;;;;15.00;14.00;;;;;8.32;67.88;101132.97;146597;607;47016;-64
2023/12/25 04:50:14;;;;;;;;;6.50;6.50;;;;;3.80;66.67;100324.31;146601;570;46020;-66
2023/12/25 04:53:08;;;;;;;;;8.00;5.75;;;;;8.51;67.09;101137.69;146596;564;46915;-66
2023/12/25 04:56:15;;;;;;;;;8.50;6.00;;;;;8.52;67.11;101146.34;146601;589;47010;-66
2023/12/25 04:59:21;;;;;;;;;12.50;8.25;;;;;5.95;66.19;100701.66;146597;584;47015;-66
2023/12/25 05:02:22;;;;;;;;;12.25;10.25;;;;;8.51;66.93;101132.53;146599;590;46010;-65
2023/12/25 05:05:29;;;;;;;;;6.25;5.25;;;;;8.59;66.86;101140.75;146596;569;46016;-65
2023/12/25 05:08:36;;;;;;;;;7.00;5.50;;;;;8.55;66.65;101146.53;146602;624;46020;-65
2023/12/25 05:11:41;;;;;;;;;5.00;4.25;;;;;8.52;67.49;101141.16;146600;605;46016;-64
2023/12/25 05:14:50;;;;;;;;;5.25;4.50;;;;;8.45;67.09;101138.97;146598;582;47010;-65
2023/12/25 05:17:47;;;;;;;;;4.00;4.00;;;;;8.40;67.31;101149.00;146598;565;47016;-65
2023/12/25 05:20:42;;;;;;;;;6.50;4.00;;;;;8.37;68.48;101153.03;146602;605;47010;-65
2023/12/25 05:23:54;;;;;;;;;;;;;;;;;;;;;
2023/12/25 05:27:09;;;;;;;;;2.25;2.25;;;;;3.75;66.64;100399.13;146603;685;46020;-66
2023/12/25 05:30:12;;;;;;;;;2.50;2.50;;;;;8.22;68.05;101160.62;146598;564;46017;-66
2023/12/25 05:33:11;;;;;;;;;5.00;4.00;;;;;8.12;69.05;101158.22;146602;601;46020;-65
2023/12/25 05:36:19;;;;;;;;;10.50;9.25;;;;;8.06;69.72;101163.88;146598;584;47016;-65
2023/12/25 05:39:15;;;;;;;;;15.25;14.50;;;;;8.07;69.72;101163.09;146602;609;46010;-65
2023/12/25 05:42:23;;;;;;;;;19.75;15.75;;;;;3.72;68.45;100396.34;146597;590;46913;-65
2023/12/25 05:45:34;;;;;;;;;10.00;9.00;;;;;8.34;67.83;101166.63;146603;564;46021;-65
2023/12/25 05:48:30;;;;;;;;;8.50;8.00;;;;;8.39;69.18;101173.06;146597;654;47016;-65
2023/12/25 05:51:26;;;;;;;;;9.00;8.00;;;;;8.41;68.91;101171.47;146602;574;47010;-64
2023/12/25 05:54:38;;;;;;;;;6.75;5.00;;;;;8.43;67.39;101176.72;146600;747;46016;-65
2023/12/25 05:57:40;;;;;;;;;6.25;5.00;;;;;8.42;67.65;101172.37;146602;641;46037;-65
2023/12/25 06:00:51;;;;;;;;;7.00;6.00;;;;;8.40;67.49;101173.94;146598;634;47012;-66
2023/12/25 06:04:00;;;;;;;;;7.75;7.00;;;;;3.78;67.04;100407.94;146596;578;49010;-65
2023/12/25 06:07:11;;;;;;;;;3.00;3.00;;;;;8.37;68.29;101184.03;146600;592;46013;-65
2023/12/25 06:10:14;;;;;;;;;3.75;3.75;;;;;8.35;67.54;101176.19;146603;599;46020;-65
2023/12/25 06:13:13;;;;;;;;;4.25;3.50;;;;;8.37;67.73;101181.44;146597;629;47013;-66
2023/12/25 06:16:24;;;;;;;;;2.50;1.75;;;;;3.88;66.53;100394.09;146600;706;46020;-65
2023/12/25 06:19:25;;;;;;;;;5.75;5.00;;;;;8.44;67.83;101183.69;146596;633;47012;-65
2023/12/25 06:22:32;;;;;;;;;4.25;3.00;;;;;4.05;66.20;100414.19;146606;606;46020;-65
2023/12/25 06:25:29;;;;;;;;;2.00;2.00;;;;;8.48;67.25;101196.94;146605;630;46014;-65
2023/12/25 06:28:48;;;;;;;;;4.00;4.00;;;;;8.46;65.84;101195.03;146607;576;46015;-65
2023/12/25 06:32:02;;;;;;;;;6.00;5.50;;;;;8.42;66.27;101191.34;146607;590;46012;-66
2023/12/25 06:35:14;;;;;;;;;6.00;5.00;;;;;8.41;66.86;101198.97;146604;586;46020;-64
2023/12/25 06:38:16;;;;;;;;;9.50;7.00;;;;;8.37;67.40;101199.53;146607;674;46012;-65
2023/12/25 06:41:15;;;;;;;;;6.25;6.00;;;;;8.32;67.94;101202.72;146603;635;46044;-63
2023/12/25 06:44:07;;;;;;;;;10.25;8.75;;;;;8.38;68.73;101194.53;146605;578;47017;-63
2023/12/25 06:47:01;;;;;;;;;10.25;8.50;;;;;8.60;69.74;101193.34;146605;631;46010;-64
2023/12/25 06:49:57;;;;;;;;;12.25;11.50;;;;;9.03;71.70;101202.22;146600;594;46016;-64
2023/12/25 06:53:07;;;;;;;;;17.50;15.25;;;;;9.86;71.10;101194.53;146604;597;46020;-62
2023/12/25 06:56:00;;;;;;;;;14.25;13.50;;;;;10.90;69.79;101194.66;146600;563;47012;-62
2023/12/25 06:58:55;;;;;;;;;13.50;11.50;;;;;11.97;64.08;101193.75;146603;599;48011;-63
2023/12/25 07:01:46;;;;;;;;;9.50;7.00;;;;;13.00;63.62;101192.87;146603;639;46016;-66
2023/12/25 07:04:45;;;;;;;;;6.00;6.00;;;;;14.03;58.30;101194.25;146602;584;46021;-65
2023/12/25 07:07:51;;;;;;;;;5.75;5.25;;;;;14.78;54.42;101192.31;146606;664;46012;-63
2023/12/25 07:10:46;;;;;;;;;8.00;7.50;;;;;15.44;51.98;101192.34;146606;587;46030;-63
2023/12/25 07:13:42;;;;;;;;;7.50;5.50;;;;;16.00;49.99;101186.63;146601;678;47012;-63
2023/12/25 07:16:45;;;;;;;;;6.00;4.25;;;;;16.48;49.70;101202.28;146604;598;47010;-63
2023/12/25 07:19:58;;;;;;;;;10.75;8.00;;;;;16.45;49.03;101142.88;146603;596;46017;-63
2023/12/25 07:23:18;;;;;;;;;6.75;6.75;;;;;14.08;50.08;100602.56;146603;603;46020;-63
2023/12/25 07:26:28;;;;;;;;;7.25;7.25;;;;;18.10;46.27;101206.59;146600;606;46012;-62
2023/12/25 07:29:36;;;;;;;;;12.75;12.75;;;;;18.62;45.57;101200.13;146603;654;46010;-62
2023/12/25 07:32:33;;;;;;;;;18.00;18.00;;;;;19.13;44.95;101208.47;146596;657;46016;-63
2023/12/25 07:35:59;;;;;;;;;20.00;18.00;;;;;19.70;44.01;101211.53;146602;622;46011;-62
2023/12/25 07:38:55;;;;;;;;;25.00;23.75;;;;;20.03;42.36;101208.72;146601;582;46016;-62
2023/12/25 07:41:57;;;;;;;;;21.50;19.25;;;;;20.24;42.07;101209.13;146603;601;46020;-62
2023/12/25 07:45:01;;;;;;;;;45.25;36.75;;;;;20.43;40.35;101215.63;146597;695;46017;-62
2023/12/25 07:47:59;;;;;;;;;34.25;30.50;;;;;20.32;40.12;101219.84;146598;594;47020;-62
2023/12/25 07:50:59;;;;;;;;;41.50;34.00;;;;;20.10;40.36;101215.91;146598;604;46013;-64
2023/12/25 07:54:08;;;;;;;;;55.50;44.75;;;;;19.88;40.86;101221.56;146603;772;46020;-63
2023/12/25 07:57:16;;;;;;;;;50.50;42.50;;;;;19.57;40.15;101223.50;146597;601;46014;-64
2023/12/25 08:00:24;;;;;;;;;41.50;35.00;;;;;19.26;43.22;101225.41;146601;631;46020;-64
2023/12/25 08:03:16;;;;;;;;;43.50;36.75;;;;;19.08;42.58;101222.34;146598;645;46016;-64
2023/12/25 08:06:13;;;;;;;;;49.25;38.00;;;;;18.95;42.10;101225.53;146602;723;46029;-64
2023/12/25 08:09:26;;;;;;;;;47.00;38.75;;;;;18.79;43.50;101227.75;146599;597;47016;-66
2023/12/25 08:12:45;;;;;;;;;42.00;34.50;;;;;16.56;44.16;100895.44;146599;571;47021;-66
2023/12/25 08:15:42;;;;;;;;;44.75;36.00;;;;;18.15;44.29;101234.75;146595;787;47012;-66
2023/12/25 08:18:44;;;;;;;;;45.50;35.50;;;;;17.96;43.41;101242.94;146602;613;46015;-64
2023/12/25 08:21:48;;;;;;;;;47.25;38.25;;;;;17.76;45.47;101243.19;146598;582;46016;-64
2023/12/25 08:24:50;;;;;;;;;48.75;40.00;;;;;17.69;45.70;101237.72;146600;618;47010;-66
2023/12/25 08:27:46;;;;;;;;;59.00;45.75;;;;;17.73;44.87;101234.34;146597;667;46017;-64
2023/12/25 08:31:04;;;;;;;;;52.25;42.00;;;;;14.48;47.19;100653.50;146602;569;48010;-65
2023/12/25 08:33:58;;;;;;;;;50.25;41.00;;;;;17.95;44.63;101233.28;146599;565;46017;-64
2023/12/25 08:37:01;;;;;;;;;56.75;46.00;;;;;18.03;44.26;101233.50;146598;563;47010;-64
2023/12/25 08:40:05;;;;;;;;;55.50;43.75;;;;;18.09;44.77;101226.69;146595;573;47012;-63
2023/12/25 08:43:15;;;;;;;;;56.00;43.00;;;;;18.14;46.33;101227.72;146601;587;47010;-65
2023/12/25 08:46:22;;;;;;;;;;;;;;;;;;;;;
2023/12/25 08:49:49;;;;;;;;;;;;;;;;;;;;;
2023/12/25 08:52:54;;;;;;;;;44.25;37.00;;;;;18.13;45.35;101207.59;146597;566;47012;-64
2023/12/25 08:56:00;;;;;;;;;53.75;42.50;;;;;18.14;46.87;101234.72;146600;569;46020;-65
2023/12/25 08:58:57;;;;;;;;;97.00;83.00;;;;;18.54;44.35;101204.31;146600;585;47014;-65
2023/12/25 09:01:56;;;;;;;;;76.67;63.33;;;;;18.75;43.19;101198.72;146608;644;46020;-64
2023/12/25 09:04:51;;;;;;;;;50.00;40.00;;;;;18.85;43.70;101192.87;146598;596;46013;-66
2023/12/25 09:07:55;;;;;;;;;57.25;45.75;;;;;18.93;42.52;101197.44;146603;620;46020;-65
2023/12/25 09:11:15;;;;;;;;;53.75;41.75;;;;;19.02;43.70;101188.03;146596;567;47012;-65
2023/12/25 09:14:12;;;;;;;;;45.00;36.25;;;;;19.11;43.17;101189.13;146601;690;46021;-68
2023/12/25 09:17:08;;;;;;;;;20.25;19.75;;;;;19.22;42.75;101188.50;146599;650;46014;-66
2023/12/25 09:20:25;;;;;;;;;27.25;25.25;;;;;19.33;42.71;101181.75;146600;601;46011;-66
2023/12/25 09:23:24;;;;;;;;;32.00;26.00;;;;;19.46;42.67;101180.28;146597;618;47016;-64
2023/12/25 09:26:36;;;;;;;;;37.25;31.50;;;;;16.19;44.07;100584.72;146601;608;47010;-64
2023/12/25 09:29:53;;;;;;;;;26.25;24.50;;;;;16.60;44.33;100625.06;146596;651;47012;-64
2023/12/25 09:33:02;;;;;;;;;27.00;24.75;;;;;16.41;44.29;100575.69;146599;597;47010;-67
2023/12/25 09:36:07;;;;;;;;;23.00;21.00;;;;;20.01;41.61;101153.41;146599;602;46016;-65
2023/12/25 09:39:18;;;;;;;;;36.25;31.25;;;;;20.18;41.86;101156.34;146600;643;46020;-65
2023/12/25 09:42:14;;;;;;;;;39.00;33.00;;;;;20.29;41.54;101154.81;146597;637;46017;-62
2023/12/25 09:45:09;;;;;;;;;26.00;25.00;;;;;20.40;39.83;101143.59;146601;613;47010;-67
2023/12/25 09:48:16;;;;;;;;;40.75;32.50;;;;;20.46;41.01;101147.22;146596;570;48915;-66
2023/12/25 09:51:23;;;;;;;;;26.00;24.00;;;;;20.49;42.85;101149.91;146598;619;48010;-67
2023/12/25 09:54:31;;;;;;;;;35.25;30.00;;;;;20.50;39.77;101145.53;146596;615;47012;-66
2023/12/25 09:57:30;;;;;;;;;20.25;18.75;;;;;20.50;42.34;101143.78;146601;644;47014;-66
2023/12/25 10:00:28;;;;;;;;;28.50;25.00;;;;;20.59;40.30;101142.19;146596;626;46023;-65
2023/12/25 10:03:33;;;;;;;;;17.00;16.00;;;;;20.62;41.35;101136.97;146599;677;48010;-64
2023/12/25 10:06:40;;;;;;;;;13.00;13.00;;;;;20.61;41.57;101138.72;146595;581;47014;-65
2023/12/25 10:09:52;;;;;;;;;10.00;8.33;;;;;20.51;39.40;101128.87;146601;575;46020;-64
2023/12/25 10:12:58;;;;;;;;;16.00;14.75;;;;;20.45;42.18;101131.41;146597;574;47012;-64
2023/12/25 10:16:05;;;;;;;;;10.50;9.00;;;;;20.43;40.25;101135.72;146601;671;46020;-65
2023/12/25 10:18:59;;;;;;;;;17.75;14.25;;;;;20.41;41.08;101133.09;146598;582;46017;-66
2023/12/25 10:22:00;;;;;;;;;15.00;12.25;;;;;20.46;40.34;101139.31;146601;648;47014;-64
2023/12/25 10:25:07;;;;;;;;;17.50;15.00;;;;;20.51;40.26;101131.50;146600;615;46030;-65
2023/12/25 10:28:18;;;;;;;;;15.00;12.00;;;;;20.52;42.35;101128.03;146602;739;47010;-64
2023/12/25 10:31:43;;;;;;;;;23.75;17.75;;;;;20.55;42.41;101125.44;146600;579;46016;-66
2023/12/25 10:34:46;;;;;;;;;18.75;17.25;;;;;18.77;42.27;100785.50;146600;592;47010;-69
2023/12/25 10:37:42;;;;;;;;;22.75;21.25;;;;;20.85;40.19;101111.87;146594;583;46912;-65
2023/12/25 10:40:46;;;;;;;;;16.25;14.25;;;;;17.70;41.60;100528.81;146600;588;46021;-64
2023/12/25 10:43:39;;;;;;;;;28.50;24.25;;;;;21.10;40.52;101097.31;146600;630;47012;-66
2023/12/25 10:46:44;;;;;;;;;22.75;19.00;;;;;21.19;37.63;101100.09;146599;679;47010;-65
2023/12/25 10:49:52;;;;;;;;;29.00;27.00;;;;;21.19;40.25;101094.81;146595;592;47012;-66
2023/12/25 10:53:00;;;;;;;;;30.75;24.00;;;;;21.20;39.04;101088.66;146600;638;46020;-66
2023/12/25 10:55:57;;;;;;;;;18.25;17.50;;;;;21.23;39.54;101088.69;146597;639;47017;-66
2023/12/25 10:58:57;;;;;;;;;18.25;15.50;;;;;21.21;39.52;101079.91;146602;577;46020;-66
2023/12/25 11:02:01;;;;;;;;;14.75;13.50;;;;;21.26;38.70;101086.97;146599;644;46913;-69
2023/12/25 11:05:08;;;;;;;;;23.25;23.00;;;;;21.22;39.87;101086.06;146604;572;47010;-66
2023/12/25 11:08:09;;;;;;;;;20.75;17.00;;;;;21.19;41.44;101089.53;146599;574;46913;-69
2023/12/25 11:11:01;;;;;;;;;14.50;13.00;;;;;21.18;39.26;101092.13;146601;569;46010;-66
2023/12/25 11:13:53;;;;;;;;;16.25;16.00;;;;;21.20;40.38;101085.13;146595;577;47912;-66
2023/12/25 11:17:08;;;;;;;;;22.00;17.50;;;;;18.23;42.25;100544.69;146602;606;46010;-66
2023/12/25 11:20:06;;;;;;;;;26.50;24.00;;;;;21.49;38.90;101069.72;146597;579;47012;-66
2023/12/25 11:23:12;;;;;;;;;21.00;19.75;;;;;21.63;39.24;101083.09;146598;600;46020;-67
2023/12/25 11:26:17;;;;;;;;;18.50;16.50;;;;;21.71;37.49;101068.19;146598;742;46012;-67
2023/12/25 11:29:13;;;;;;;;;21.00;17.50;;;;;21.78;39.31;101064.78;146600;601;46020;-67
2023/12/25 11:32:16;;;;;;;;;26.00;20.75;;;;;21.89;40.28;101062.25;146597;609;47012;-68
2023/12/25 11:36:00;;;;;;;;;21.00;19.25;;;;;18.78;40.19;100493.03;146599;586;47010;-69
2023/12/25 11:39:06;;;;;;;;;23.25;19.25;;;;;22.11;39.16;101052.78;146597;677;47017;-69
2023/12/25 11:42:03;;;;;;;;;16.25;14.00;;;;;22.13;36.64;101056.31;146598;672;47020;-68
2023/12/25 11:45:05;;;;;;;;;19.00;16.75;;;;;22.09;37.59;101050.13;146599;679;47012;-67
2023/12/25 11:48:11;;;;;;;;;18.50;14.50;;;;;22.07;37.81;101045.69;146599;712;47021;-69
2023/12/25 11:51:41;;;;;;;;;31.75;27.75;;;;;22.04;39.60;101043.91;146597;601;46012;-69
2023/12/25 11:54:47;;;;;;;;;22.50;18.50;;;;;21.97;39.37;101043.84;146601;635;47014;-67
2023/12/25 11:57:49;;;;;;;;;17.75;15.50;;;;;21.92;38.41;101038.50;146596;598;47014;-67
2023/12/25 12:00:47;;;;;;;;;9.25;7.00;;;;;21.96;39.26;101037.66;146600;703;47010;-66
2023/12/25 12:03:47;;;;;;;;;14.25;13.50;;;;;22.01;38.84;101048.28;146599;574;46016;-67
2023/12/25 12:06:40;;;;;;;;;10.33;8.33;;;;;22.02;39.65;101032.44;146601;646;48010;-66
2023/12/25 12:09:38;;;;;;;;;29.00;23.75;;;;;22.08;41.18;101028.97;146598;573;46016;-67
2023/12/25 12:12:53;;;;;;;;;13.00;11.25;;;;;20.11;42.12;100656.06;146600;577;46020;-67
2023/12/25 12:15:55;;;;;;;;;11.25;9.25;;;;;19.18;41.35;100462.03;146597;583;46016;-67
2023/12/25 12:18:53;;;;;;;;;13.75;11.50;;;;;22.73;39.24;101041.84;146600;576;46919;-67
2023/12/25 12:21:57;;;;;;;;;12.50;11.00;;;;;22.95;39.06;101029.66;146600;591;46016;-67
2023/12/25 12:24:58;;;;;;;;;17.25;15.25;;;;;23.13;39.70;101028.88;146603;602;46021;-66
2023/12/25 12:28:04;;;;;;;;;;;;;;;;;;;;;
2023/12/25 12:31:01;;;;;;;;;11.00;10.33;;;;;23.44;38.37;101021.94;146604;570;46020;-66
2023/12/25 12:34:12;;;;;;;;;12.75;11.50;;;;;23.57;40.75;101014.03;146598;583;47012;-67
2023/12/25 12:37:20;;;;;;;;;19.75;14.75;;;;;23.83;40.87;101019.41;146601;569;47020;-68
2023/12/25 12:40:31;;;;;;;;;23.25;22.25;;;;;24.15;39.38;101006.22;146598;580;46915;-68
2023/12/25 12:43:47;;;;;;;;;15.25;15.25;;;;;21.33;40.67;100503.28;146600;608;46020;-68
2023/12/25 12:46:57;;;;;;;;;;;;;;;;;;;;;
2023/12/25 12:50:11;;;;;;;;;15.75;14.25;;;;;24.36;39.94;101007.94;146603;651;47036;-68
2023/12/25 12:53:10;;;;;;;;;18.50;16.75;;;;;24.51;38.70;101012.38;146595;654;47012;-68
2023/12/25 12:56:14;;;;;;;;;18.00;16.00;;;;;24.66;38.85;101015.03;146601;642;47010;-67
2023/12/25 12:59:20;;;;;;;;;30.25;27.25;;;;;24.85;37.53;101014.06;146599;597;46016;-67
2023/12/25 13:02:28;;;;;;;;;23.75;20.25;;;;;21.89;40.73;100511.41;146599;598;47010;-67
2023/12/25 13:05:34;;;;;;;;;25.25;21.50;;;;;24.76;38.27;101014.09;146599;571;46012;-67
2023/12/25 13:08:26;;;;;;;;;27.00;24.25;;;;;24.78;38.37;101015.00;146605;618;46021;-67
2023/12/25 13:11:22;;;;;;;;;14.25;13.00;;;;;24.79;38.50;101003.47;146599;622;46016;-67
2023/12/25 13:14:24;;;;;;;;;18.25;17.00;;;;;21.59;39.24;100438.34;146600;582;46020;-69
2023/12/25 13:17:33;;;;;;;;;18.50;18.25;;;;;24.89;40.23;101002.59;146597;569;46017;-68
2023/12/25 13:20:35;;;;;;;;;15.50;13.75;;;;;24.88;39.31;101007.88;146602;570;47010;-67
2023/12/25 13:23:34;;;;;;;;;20.75;16.00;;;;;24.89;37.77;101002.59;146597;625;47012;-67
2023/12/25 13:26:28;;;;;;;;;17.00;14.75;;;;;24.94;37.75;101007.88;146599;719;47010;-67
2023/12/25 13:29:24;;;;;;;;;12.75;12.75;;;;;24.97;37.60;101007.84;146601;591;46012;-68
2023/12/25 13:32:21;;;;;;;;;149.75;135.50;;;;;24.96;37.77;101006.09;146606;616;47010;-68
2023/12/25 13:35:18;;;;;;;;;32.50;29.00;;;;;24.96;36.88;101010.53;146603;566;46012;-68
2023/12/25 13:38:16;;;;;;;;;53.25;41.25;;;;;24.89;38.40;101001.69;146604;623;46021;-68
2023/12/25 13:41:25;;;;;;;;;17.50;17.00;;;;;24.83;37.37;101010.56;146600;598;46012;-67
2023/12/25 13:44:34;;;;;;;;;35.75;31.00;;;;;24.78;39.15;101022.94;146599;565;47010;-68
2023/12/25 13:47:35;;;;;;;;;48.00;40.75;;;;;24.71;37.66;101015.91;146596;571;46017;-67
2023/12/25 13:50:39;;;;;;;;;23.00;18.50;;;;;24.62;38.77;101019.44;146600;637;46020;-67
2023/12/25 13:53:39;;;;;;;;;30.50;28.50;;;;;24.51;39.34;101023.00;146598;570;47016;-67
2023/12/25 13:56:51;;;;;;;;;52.00;42.50;;;;;24.38;40.11;101020.31;146603;564;46010;-67
2023/12/25 13:59:52;;;;;;;;;40.25;34.25;;;;;24.37;39.77;101009.75;146594;587;47035;-67
2023/12/25 14:03:12;;;;;;;;;;;;;;;;;;;;;
2023/12/25 14:06:39;;;;;;;;;21.25;20.50;;;;;24.32;41.26;101007.06;146599;566;46016;-68
2023/12/25 14:09:45;;;;;;;;;21.25;18.50;;;;;21.13;41.83;100466.31;146602;601;46020;-68
2023/12/25 14:12:41;;;;;;;;;12.50;12.00;;;;;24.17;38.83;101010.63;146597;699;46016;-67
2023/12/25 14:15:37;;;;;;;;;16.25;15.75;;;;;24.00;38.60;101009.72;146601;582;46021;-66
2023/12/25 14:18:37;;;;;;;;;21.50;19.75;;;;;23.80;38.98;101012.38;146598;585;46016;-69